Time;durP1;ratioP1;P1;durP2;ratioP2;P2;SDS_P1;SDS_P2;PMS_P1;PMS_P2;Temp;Humidity;BMP_temperature;BMP_pressure;BME280_temperature;BME280_humidity;BME280_pressure;Samples;Min_cycle;Max_cycle;Signal;HPM_P1;HPM_P2
2021/09/04 00:02:52;;;;;;;;;18.40;17.00;;;;;21.05;49.14;98858.16;6163666;28;97340;-64
2021/09/04 00:05:56;;;;;;;;;16.60;16.00;;;;;21.03;49.29;98856.81;6163224;28;97918;-63
2021/09/04 00:09:01;;;;;;;;;19.80;15.80;;;;;21.01;49.30;98856.31;6162488;28;96763;-63
2021/09/04 00:12:05;;;;;;;;;17.40;16.00;;;;;20.97;49.36;98855.22;6162889;28;98052;-61
2021/09/04 00:15:11;;;;;;;;;17.40;17.00;;;;;20.90;49.72;98852.84;6127440;28;97133;-63
2021/09/04 00:18:17;;;;;;;;;18.00;17.00;;;;;20.81;49.80;98851.84;6139385;28;97389;-64
2021/09/04 00:21:24;;;;;;;;;16.25;15.00;;;;;20.81;49.38;98860.06;6121724;28;96642;-64
2021/09/04 00:24:27;;;;;;;;;19.00;18.00;;;;;20.74;49.85;98859.56;6138275;28;97313;-63
2021/09/04 00:27:36;;;;;;;;;17.00;16.00;;;;;20.73;50.00;98864.22;6139187;28;97504;-63
2021/09/04 00:30:41;;;;;;;;;16.80;15.00;;;;;20.69;49.97;98859.63;6139827;28;96621;-63
2021/09/04 00:33:44;;;;;;;;;17.50;15.00;;;;;20.64;49.96;98857.75;6120650;28;97867;-62
2021/09/04 00:36:47;;;;;;;;;15.00;15.00;;;;;20.59;49.92;98857.78;6139138;28;97553;-63
2021/09/04 00:39:50;;;;;;;;;14.20;14.20;;;;;20.61;49.77;98847.38;6138688;28;97114;-61
2021/09/04 00:42:54;;;;;;;;;16.00;15.00;;;;;20.53;50.33;98847.97;6138873;28;97600;-63
2021/09/04 00:46:08;;;;;;;;;16.00;14.00;;;;;20.56;49.95;98849.34;6138031;28;96607;-62
2021/09/04 00:49:12;;;;;;;;;16.80;15.80;;;;;20.55;50.32;98851.25;6138364;28;98094;-62
2021/09/04 00:52:16;;;;;;;;;16.40;16.40;;;;;20.53;50.34;98847.97;6138404;28;96603;-61
2021/09/04 00:55:20;;;;;;;;;16.00;15.00;;;;;20.51;50.43;98850.19;6121013;28;99671;-63
2021/09/04 00:58:24;;;;;;;;;17.00;15.50;;;;;20.49;50.17;98846.91;6137730;28;97258;-64
2021/09/04 01:01:31;;;;;;;;;18.00;15.60;;;;;20.44;50.35;98846.97;6137965;28;97447;-63
2021/09/04 01:04:36;;;;;;;;;18.00;16.20;;;;;20.46;50.60;98847.50;6138179;28;97176;-62
2021/09/04 01:07:40;;;;;;;;;17.00;16.00;;;;;20.42;50.28;98843.72;6137221;28;97503;-62
2021/09/04 01:10:45;;;;;;;;;20.50;18.00;;;;;20.31;50.82;98832.03;6136134;28;97514;-63
2021/09/04 01:13:48;;;;;;;;;18.00;16.00;;;;;20.36;50.49;98839.38;6143564;28;99429;-62
2021/09/04 01:16:52;;;;;;;;;17.00;15.60;;;;;20.35;50.43;98842.38;6142194;28;98968;-63
2021/09/04 01:19:56;;;;;;;;;19.00;16.00;;;;;20.29;50.88;98844.31;6160661;28;98415;-63
2021/09/04 01:22:59;;;;;;;;;15.60;15.40;;;;;20.20;51.25;98854.25;6163004;28;97621;-61
2021/09/04 01:26:05;;;;;;;;;18.60;17.20;;;;;20.07;51.48;98846.69;6145878;28;96523;-62
2021/09/04 01:29:08;;;;;;;;;18.00;17.00;;;;;20.18;51.32;98851.00;6163078;28;96548;-63
2021/09/04 01:32:12;;;;;;;;;19.40;17.40;;;;;20.07;51.07;98847.50;6157540;28;97141;-63
2021/09/04 01:35:20;;;;;;;;;17.00;16.00;;;;;20.17;51.28;98854.81;6144590;28;97200;-64
2021/09/04 01:38:25;;;;;;;;;18.00;16.00;;;;;20.18;51.05;98851.78;6162368;28;97709;-63
2021/09/04 01:41:30;;;;;;;;;17.00;15.00;;;;;20.20;50.88;98856.97;6163128;28;96618;-61
2021/09/04 01:44:33;;;;;;;;;20.00;18.00;;;;;20.18;51.16;98851.00;6161888;28;97615;-63
2021/09/04 01:47:37;;;;;;;;;19.00;16.00;;;;;20.26;51.07;98847.63;6143448;28;98006;-62
2021/09/04 01:50:40;;;;;;;;;17.25;17.00;;;;;20.28;50.78;98851.69;6161863;28;96524;-64
2021/09/04 01:53:44;;;;;;;;;16.20;15.80;;;;;20.32;50.70;98835.56;6161523;28;97071;-63
2021/09/04 01:56:48;;;;;;;;;18.00;17.00;;;;;20.27;50.95;98841.06;6161875;28;98022;-63
2021/09/04 01:59:52;;;;;;;;;18.75;18.00;;;;;20.25;51.07;98835.84;6165251;28;96946;-63
2021/09/04 02:02:55;;;;;;;;;18.00;17.75;;;;;20.23;50.99;98832.56;6165416;28;97809;-63
2021/09/04 02:05:59;;;;;;;;;18.40;15.60;;;;;20.22;51.16;98830.97;6152482;28;100170;-63
2021/09/04 02:09:02;;;;;;;;;19.00;18.00;;;;;20.19;50.92;98838.91;6165555;28;97920;-62
2021/09/04 02:12:09;;;;;;;;;19.00;16.75;;;;;20.14;51.05;98830.75;6148578;28;98727;-63
2021/09/04 02:15:17;;;;;;;;;17.60;17.00;;;;;20.15;51.20;98835.13;6164729;28;97509;-63
2021/09/04 02:18:20;;;;;;;;;19.00;16.00;;;;;20.16;51.15;98834.84;6147178;28;96723;-63
2021/09/04 02:21:25;;;;;;;;;19.00;16.00;;;;;20.16;51.33;98842.22;6165886;28;96403;-63
2021/09/04 02:24:29;;;;;;;;;18.00;15.00;;;;;20.13;51.16;98838.16;6147366;28;97146;-63
2021/09/04 02:27:34;;;;;;;;;18.20;16.00;;;;;20.11;51.13;98836.78;6165549;28;97596;-63
2021/09/04 02:30:37;;;;;;;;;17.00;16.00;;;;;20.11;50.94;98840.34;6147034;28;97908;-63
2021/09/04 02:33:43;;;;;;;;;16.00;15.40;;;;;20.16;51.00;98847.72;6165570;28;96587;-62
2021/09/04 02:36:47;;;;;;;;;21.00;18.00;;;;;20.19;51.06;98845.22;6163313;28;97470;-62
2021/09/04 02:39:51;;;;;;;;;19.00;16.20;;;;;20.18;50.75;98849.03;6146348;28;97746;-63
2021/09/04 02:42:56;;;;;;;;;21.00;17.40;;;;;20.01;51.29;98845.06;6147407;28;97411;-63
2021/09/04 02:46:01;;;;;;;;;16.60;16.00;;;;;19.86;51.48;98841.34;6164768;28;96628;-64
2021/09/04 02:49:05;;;;;;;;;17.00;16.40;;;;;19.80;51.59;98844.38;6164084;28;96971;-62
2021/09/04 02:52:08;;;;;;;;;18.00;17.00;;;;;19.71;51.55;98846.06;6152930;28;97943;-63
2021/09/04 02:55:12;;;;;;;;;18.40;16.00;;;;;19.61;51.63;98846.13;6165085;28;97417;-61
2021/09/04 02:58:17;;;;;;;;;16.00;16.00;;;;;19.49;52.21;98846.47;6163120;28;97712;-63
2021/09/04 03:01:20;;;;;;;;;16.00;15.00;;;;;19.42;51.93;98854.94;6162731;28;96844;-62
2021/09/04 03:04:24;;;;;;;;;18.25;16.00;;;;;19.37;52.08;98854.13;6144983;28;96686;-64
2021/09/04 03:07:28;;;;;;;;;17.00;15.00;;;;;19.34;52.61;98850.06;6144733;28;96612;-63
2021/09/04 03:10:32;;;;;;;;;19.00;17.25;;;;;19.29;52.59;98852.81;6163343;28;97462;-62
2021/09/04 03:13:38;;;;;;;;;16.00;15.00;;;;;19.29;52.76;98855.53;6145559;28;97443;-61
2021/09/04 03:16:42;;;;;;;;;22.25;21.00;;;;;19.28;52.98;98842.97;6165538;28;97242;-63
2021/09/04 03:19:45;;;;;;;;;22.00;19.60;;;;;19.27;52.89;98841.31;6164188;28;97052;-61
2021/09/04 03:22:49;;;;;;;;;20.60;18.00;;;;;19.24;53.08;98843.81;6164728;28;97568;-61
2021/09/04 03:25:53;;;;;;;;;22.60;19.00;;;;;19.25;53.03;98831.78;6164289;28;97438;-63
2021/09/04 03:28:58;;;;;;;;;20.00;17.75;;;;;19.22;53.19;98833.16;6163727;28;97425;-63
2021/09/04 03:32:03;;;;;;;;;19.80;18.20;;;;;19.19;53.04;98832.91;6164059;28;97508;-62
2021/09/04 03:35:07;;;;;;;;;19.25;17.00;;;;;19.17;53.18;98835.91;6162885;28;98596;-62
2021/09/04 03:38:12;;;;;;;;;18.00;16.00;;;;;19.18;53.34;98836.72;6146726;28;97135;-62
2021/09/04 03:41:16;;;;;;;;;17.00;15.20;;;;;19.15;53.48;98829.09;6145859;28;97928;-63
2021/09/04 03:44:20;;;;;;;;;17.00;15.80;;;;;19.16;53.73;98842.44;6146695;28;97590;-63
2021/09/04 03:47:24;;;;;;;;;19.60;17.00;;;;;19.12;53.74;98844.09;6163520;28;97867;-63
2021/09/04 03:50:27;;;;;;;;;18.50;17.00;;;;;19.10;53.96;98849.06;6145860;28;96705;-63
2021/09/04 03:53:31;;;;;;;;;19.00;18.00;;;;;19.11;53.98;98847.94;6163434;28;96705;-63
2021/09/04 03:56:34;;;;;;;;;17.50;17.00;;;;;19.17;53.56;98855.03;6146412;28;96722;-63
2021/09/04 03:59:40;;;;;;;;;20.50;18.50;;;;;19.20;53.84;98851.75;6146103;28;97681;-63
2021/09/04 04:02:45;;;;;;;;;17.00;15.20;;;;;19.21;53.86;98855.28;6164566;28;96896;-63
2021/09/04 04:05:49;;;;;;;;;20.20;17.00;;;;;19.24;53.82;98862.94;6164369;28;97122;-63
2021/09/04 04:08:55;;;;;;;;;20.00;18.00;;;;;19.26;53.78;98864.28;6163803;28;97477;-63
2021/09/04 04:12:00;;;;;;;;;18.80;17.00;;;;;19.23;53.91;98858.56;6163105;28;96885;-63
2021/09/04 04:15:05;;;;;;;;;21.00;19.00;;;;;19.29;53.66;98857.47;6129753;28;97596;-63
2021/09/04 04:18:10;;;;;;;;;19.00;17.67;;;;;19.14;54.13;98858.31;6140069;28;97276;-62
2021/09/04 04:21:13;;;;;;;;;19.80;17.80;;;;;19.34;53.82;98861.00;6137908;28;98002;-63
2021/09/04 04:24:16;;;;;;;;;22.50;17.75;;;;;19.26;53.88;98856.09;6138851;28;97489;-63
2021/09/04 04:27:20;;;;;;;;;22.00;19.67;;;;;19.33;53.79;98856.63;6121492;28;98412;-63
2021/09/04 04:30:25;;;;;;;;;18.60;17.00;;;;;19.35;53.37;98859.88;6137765;28;97468;-64
2021/09/04 04:33:29;;;;;;;;;19.00;17.60;;;;;19.38;53.50;98853.88;6137720;28;96863;-61
2021/09/04 04:36:33;;;;;;;;;21.00;18.20;;;;;19.36;53.72;98863.44;6138912;28;98112;-63
2021/09/04 04:39:37;;;;;;;;;17.00;17.00;;;;;19.36;53.65;98863.44;6140227;28;97441;-63
2021/09/04 04:42:41;;;;;;;;;18.00;16.80;;;;;19.40;53.67;98870.00;6138546;28;96913;-63
2021/09/04 04:45:46;;;;;;;;;21.50;19.00;;;;;19.35;54.01;98865.34;6120025;28;98439;-63
2021/09/04 04:48:51;;;;;;;;;20.80;17.00;;;;;19.40;53.72;98862.59;6132361;28;97274;-63
2021/09/04 04:51:55;;;;;;;;;20.00;18.50;;;;;19.49;53.60;98873.81;6134554;28;97396;-63
2021/09/04 04:54:59;;;;;;;;;17.00;16.00;;;;;19.58;53.45;98874.03;6136052;28;97455;-63
2021/09/04 04:58:06;;;;;;;;;18.60;16.00;;;;;19.59;53.37;98870.22;6120094;28;97774;-63
2021/09/04 05:01:12;;;;;;;;;16.80;16.80;;;;;19.65;53.17;98864.44;6131938;28;97159;-62
2021/09/04 05:04:16;;;;;;;;;18.00;17.00;;;;;19.74;53.09;98870.94;6138974;28;96759;-63
2021/09/04 05:07:19;;;;;;;;;19.00;17.20;;;;;19.78;53.21;98855.63;6137892;28;97370;-62
2021/09/04 05:10:22;;;;;;;;;18.00;17.00;;;;;19.86;52.64;98865.97;6117102;28;97264;-63
2021/09/04 05:13:26;;;;;;;;;19.40;16.00;;;;;19.88;52.83;98860.22;6140245;28;97592;-63
2021/09/04 05:16:32;;;;;;;;;17.40;16.00;;;;;20.01;52.45;98873.25;6160143;28;96665;-63
2021/09/04 05:19:36;;;;;;;;;20.60;17.60;;;;;20.15;52.21;98871.53;6161566;28;96460;-63
2021/09/04 05:22:42;;;;;;;;;18.40;18.40;;;;;20.33;51.78;98874.72;6143558;28;98450;-63
2021/09/04 05:25:49;;;;;;;;;16.00;15.00;;;;;20.49;51.86;98866.09;6163594;28;96960;-62
2021/09/04 05:28:52;;;;;;;;;20.00;17.00;;;;;20.59;51.76;98876.13;6163770;28;96573;-63
2021/09/04 05:31:57;;;;;;;;;19.00;16.00;;;;;20.66;51.08;98869.25;6163371;28;97492;-63
2021/09/04 05:35:00;;;;;;;;;17.00;16.00;;;;;20.80;50.85;98872.13;6157141;28;96547;-62
2021/09/04 05:38:04;;;;;;;;;17.40;15.00;;;;;20.97;50.59;98871.66;6147402;28;96664;-64
2021/09/04 05:41:09;;;;;;;;;19.25;16.25;;;;;21.04;50.03;98870.22;6147929;28;97713;-64
2021/09/04 05:44:13;;;;;;;;;17.50;16.50;;;;;21.14;50.29;98878.38;6166444;28;96672;-63
2021/09/04 05:47:18;;;;;;;;;19.00;17.00;;;;;21.28;49.75;98872.19;6164065;28;97842;-63
2021/09/04 05:50:21;;;;;;;;;17.00;16.00;;;;;21.42;49.55;98876.69;6160692;28;97379;-63
2021/09/04 05:53:24;;;;;;;;;17.00;15.00;;;;;21.55;49.16;98884.19;6146775;28;96687;-63
2021/09/04 05:56:27;;;;;;;;;16.00;15.00;;;;;21.72;48.80;98880.16;6146214;28;96879;-64
2021/09/04 05:59:30;;;;;;;;;18.50;15.50;;;;;21.93;47.80;98890.63;6152763;28;96908;-62
2021/09/04 06:02:35;;;;;;;;;17.00;15.00;;;;;22.03;47.61;98897.88;6148982;28;97417;-63
2021/09/04 06:05:39;;;;;;;;;17.60;16.60;;;;;22.19;47.51;98888.28;6144707;28;97067;-63
2021/09/04 06:08:42;;;;;;;;;18.00;16.00;;;;;22.31;47.35;98899.66;6165146;28;96691;-64
2021/09/04 06:11:45;;;;;;;;;19.00;18.00;;;;;22.35;47.34;98903.44;6164809;28;97410;-64
2021/09/04 06:14:49;;;;;;;;;18.00;17.00;;;;;22.45;46.93;98896.97;6132356;28;96634;-62
2021/09/04 06:17:53;;;;;;;;;16.00;15.20;;;;;22.62;47.03;98893.69;6163985;28;96849;-63
2021/09/04 06:20:57;;;;;;;;;15.00;14.60;;;;;22.84;46.98;98897.44;6164778;28;96993;-63
2021/09/04 06:24:01;;;;;;;;;19.00;17.25;;;;;23.09;46.44;98895.34;6155012;28;97515;-63
2021/09/04 06:27:04;;;;;;;;;20.40;17.40;;;;;23.36;46.00;98902.84;6147666;28;97182;-63
2021/09/04 06:30:09;;;;;;;;;17.60;16.60;;;;;23.46;45.11;98905.41;6150276;28;96759;-61
2021/09/04 06:33:14;;;;;;;;;19.00;18.00;;;;;23.70;45.15;98906.81;6141520;28;96676;-64
2021/09/04 06:36:18;;;;;;;;;18.00;17.60;;;;;23.90;44.54;98910.25;6143369;28;98317;-63
2021/09/04 06:39:22;;;;;;;;;19.00;17.60;;;;;24.25;45.08;98906.75;6128746;28;98673;-63
2021/09/04 06:42:25;;;;;;;;;22.25;19.25;;;;;24.54;43.33;98906.34;6157959;28;97305;-63
2021/09/04 06:45:29;;;;;;;;;20.40;19.40;;;;;24.74;42.85;98907.78;6164830;28;97440;-62
2021/09/04 06:48:34;;;;;;;;;21.00;18.00;;;;;24.88;42.84;98912.13;6146522;28;97449;-63
2021/09/04 06:51:37;;;;;;;;;23.50;21.00;;;;;24.96;42.48;98914.16;6141147;28;96629;-62
2021/09/04 06:54:41;;;;;;;;;21.00;19.40;;;;;25.19;42.38;98917.69;6163672;28;97389;-63
2021/09/04 06:57:44;;;;;;;;;22.80;22.00;;;;;25.30;41.93;98921.81;6164443;28;96705;-63
2021/09/04 07:00:47;;;;;;;;;24.00;21.00;;;;;25.54;41.88;98926.94;6165187;28;97393;-64
2021/09/04 07:03:52;;;;;;;;;24.00;21.00;;;;;25.57;41.29;98928.25;6163801;28;98051;-63
2021/09/04 07:06:55;;;;;;;;;22.00;21.00;;;;;25.68;41.51;98930.44;6154539;28;97045;-63
2021/09/04 07:09:59;;;;;;;;;24.00;22.00;;;;;25.87;41.46;98927.38;6146218;28;96687;-63
2021/09/04 07:13:02;;;;;;;;;28.00;23.25;;;;;26.01;40.76;98927.25;6163340;28;97427;-63
2021/09/04 07:16:06;;;;;;;;;24.60;22.00;;;;;26.21;40.52;98932.16;6163667;28;97816;-63
2021/09/04 07:19:11;;;;;;;;;25.20;23.80;;;;;26.42;40.16;98935.16;6163560;28;96511;-63
2021/09/04 07:22:14;;;;;;;;;24.00;21.80;;;;;26.66;40.29;98925.22;6163580;28;97453;-63
2021/09/04 07:25:17;;;;;;;;;27.00;24.00;;;;;27.04;39.66;98932.84;6164115;28;97493;-63
2021/09/04 07:28:21;;;;;;;;;23.00;22.00;;;;;27.43;39.57;98926.22;6163047;28;97760;-63
2021/09/04 07:31:24;;;;;;;;;23.00;21.50;;;;;27.61;38.05;98933.38;6163837;28;96650;-61
2021/09/04 07:34:29;;;;;;;;;26.00;24.50;;;;;27.71;38.09;98912.78;6163101;28;96871;-63
2021/09/04 07:37:33;;;;;;;;;26.00;24.50;;;;;28.11;37.65;98930.66;6164451;28;97400;-63
2021/09/04 07:40:36;;;;;;;;;24.40;22.80;;;;;28.33;37.77;98940.63;6164841;28;96671;-62
2021/09/04 07:43:40;;;;;;;;;27.80;24.00;;;;;28.63;37.11;98939.44;6145671;28;99786;-63
2021/09/04 07:46:43;;;;;;;;;28.00;24.60;;;;;28.65;36.52;98933.53;6145201;28;97741;-63
2021/09/04 07:49:48;;;;;;;;;26.60;23.00;;;;;28.89;36.06;98944.75;6163105;28;97468;-63
2021/09/04 07:52:51;;;;;;;;;28.00;25.50;;;;;28.99;35.65;98941.56;6145646;28;96832;-62
2021/09/04 07:55:55;;;;;;;;;25.00;23.00;;;;;29.12;36.58;98917.44;6162441;28;97414;-63
2021/09/04 07:58:58;;;;;;;;;26.25;24.00;;;;;29.53;34.96;98952.59;6163235;28;96597;-64
2021/09/04 08:02:02;;;;;;;;;25.60;24.00;;;;;29.88;34.70;98953.78;6162716;28;97518;-63
2021/09/04 08:05:10;;;;;;;;;28.00;24.40;;;;;30.12;34.36;98956.59;6162657;28;97496;-63
2021/09/04 08:08:13;;;;;;;;;25.00;24.80;;;;;30.08;34.02;98952.06;6162357;28;96604;-64
2021/09/04 08:11:18;;;;;;;;;24.00;22.00;;;;;30.05;34.44;98961.94;6162993;28;96634;-64
2021/09/04 08:14:22;;;;;;;;;25.00;22.00;;;;;30.31;34.50;98958.75;6162893;28;97315;-62
2021/09/04 08:17:25;;;;;;;;;29.20;25.00;;;;;30.61;34.28;98956.53;6160583;28;96792;-64
2021/09/04 08:20:30;;;;;;;;;27.50;24.00;;;;;30.58;33.57;98962.81;6163518;28;97409;-63
2021/09/04 08:23:33;;;;;;;;;28.00;27.00;;;;;30.41;33.35;98961.06;6140013;28;97504;-63
2021/09/04 08:26:36;;;;;;;;;25.00;20.75;;;;;30.61;33.58;98964.06;6161923;28;97552;-64
2021/09/04 08:29:40;;;;;;;;;24.00;23.60;;;;;30.48;33.29;98968.84;6144827;28;97918;-64
2021/09/04 08:32:43;;;;;;;;;28.00;25.00;;;;;30.72;33.05;98971.56;6161057;28;96669;-63
2021/09/04 08:35:48;;;;;;;;;27.00;23.00;;;;;31.07;32.62;98962.66;6160775;28;96972;-62
2021/09/04 08:38:51;;;;;;;;;27.00;25.50;;;;;31.46;32.59;98961.75;6161964;28;97495;-63
2021/09/04 08:41:54;;;;;;;;;25.80;23.60;;;;;31.76;31.85;98959.34;6161723;28;96748;-64
2021/09/04 08:44:57;;;;;;;;;29.80;25.00;;;;;32.01;31.54;98963.53;6144054;28;98508;-64
2021/09/04 08:48:02;;;;;;;;;25.00;23.75;;;;;32.24;31.56;98969.31;6162637;28;97080;-63
2021/09/04 08:51:07;;;;;;;;;27.60;26.00;;;;;32.07;31.19;98962.09;6162154;28;98076;-62
2021/09/04 08:54:10;;;;;;;;;35.00;30.00;;;;;31.93;31.09;98970.13;6162056;28;96428;-62
2021/09/04 08:57:16;;;;;;;;;39.40;30.60;;;;;32.06;31.11;98977.22;6162104;28;96799;-62
2021/09/04 09:00:31;;;;;;;;;34.20;29.40;;;;;31.90;32.24;98967.25;6162545;28;96469;-64
2021/09/04 09:03:34;;;;;;;;;29.00;27.00;;;;;31.70;32.00;98971.94;6162053;28;97346;-62
2021/09/04 09:06:40;;;;;;;;;30.60;27.60;;;;;31.42;32.96;98971.16;6144754;28;97972;-63
2021/09/04 09:09:46;;;;;;;;;32.60;29.60;;;;;31.16;32.84;98972.47;6166679;28;97700;-64
2021/09/04 09:12:50;;;;;;;;;32.50;29.00;;;;;31.06;33.47;98969.38;6159521;28;96575;-62
2021/09/04 09:15:55;;;;;;;;;29.60;29.00;;;;;31.12;32.86;98974.34;6166586;28;97018;-62
2021/09/04 09:19:01;;;;;;;;;33.20;30.00;;;;;31.25;31.73;98978.69;6166920;28;96574;-62
2021/09/04 09:22:13;;;;;;;;;32.00;28.33;;;;;31.56;32.41;98969.59;6166472;28;97204;-64
2021/09/04 09:25:19;;;;;;;;;36.40;30.60;;;;;32.04;31.89;98964.81;6166448;28;97157;-63
2021/09/04 09:28:24;;;;;;;;;30.60;28.00;;;;;32.20;31.65;98968.44;6166558;28;97361;-63
2021/09/04 09:31:32;;;;;;;;;52.00;41.60;;;;;31.88;31.52;98972.38;6148238;28;97421;-63
2021/09/04 09:34:37;;;;;;;;;36.20;32.00;;;;;31.53;32.11;98975.84;6146983;28;99581;-64
2021/09/04 09:37:49;;;;;;;;;38.00;32.00;;;;;31.21;32.17;98960.25;6164873;28;97011;-64
2021/09/04 09:40:54;;;;;;;;;49.60;39.00;;;;;30.98;33.10;98976.69;6164273;28;97608;-63
2021/09/04 09:43:57;;;;;;;;;32.60;31.00;;;;;30.61;33.65;98976.00;6164072;28;97279;-62
2021/09/04 09:47:04;;;;;;;;;33.20;31.00;;;;;30.32;33.62;98970.69;6165951;28;96609;-63
2021/09/04 09:50:07;;;;;;;;;33.60;30.00;;;;;30.41;33.67;98969.41;6167799;28;97050;-63
2021/09/04 09:53:12;;;;;;;;;34.00;30.00;;;;;30.72;33.92;98967.97;6141340;28;97089;-62
2021/09/04 09:56:15;;;;;;;;;33.00;30.00;;;;;31.05;33.27;98970.53;6157025;28;96661;-63
2021/09/04 09:59:22;;;;;;;;;28.75;26.75;;;;;30.93;33.96;98974.16;6162985;28;96984;-63
2021/09/04 10:02:26;;;;;;;;;29.00;27.40;;;;;31.17;33.52;98978.84;6165490;28;96809;-62
2021/09/04 10:05:31;;;;;;;;;30.50;27.00;;;;;31.42;32.75;98971.97;6133350;28;98323;-63
2021/09/04 10:08:35;;;;;;;;;27.00;25.00;;;;;31.76;32.92;98962.94;6165034;28;97405;-62
2021/09/04 10:11:40;;;;;;;;;27.50;24.50;;;;;32.11;31.16;98970.56;6165129;28;97583;-63
2021/09/04 10:14:46;;;;;;;;;27.00;24.00;;;;;31.59;31.37;98979.19;6164528;28;98144;-63
2021/09/04 10:17:53;;;;;;;;;28.00;27.00;;;;;31.11;31.64;98930.94;6164793;28;96377;-63
2021/09/04 10:21:05;;;;;;;;;28.20;24.00;;;;;31.08;32.35;98978.19;6165132;28;96996;-63
2021/09/04 10:24:11;;;;;;;;;25.60;23.00;;;;;30.86;32.47;98968.38;6164628;28;97419;-63
2021/09/04 10:27:28;;;;;;;;;27.60;25.60;;;;;30.46;33.27;98976.72;6164472;28;97507;-63
2021/09/04 10:30:34;;;;;;;;;26.60;26.00;;;;;29.98;32.88;98969.22;6165035;28;97459;-64
2021/09/04 10:33:39;;;;;;;;;30.00;26.60;;;;;29.71;34.66;98974.25;6164391;28;97545;-64
2021/09/04 10:37:16;;;;;;;;;26.50;23.00;;;;;29.62;34.54;98972.75;6165326;28;96511;-62
2021/09/04 10:40:36;;;;;;;;;26.00;24.00;;;;;29.66;35.08;98976.47;6133355;28;96668;-62
2021/09/04 10:43:42;;;;;;;;;31.60;27.20;;;;;29.47;34.26;98965.91;6164811;28;97251;-61
2021/09/04 10:46:46;;;;;;;;;31.60;28.00;;;;;29.76;33.98;98969.66;6164882;28;96668;-62
2021/09/04 10:49:53;;;;;;;;;25.67;24.00;;;;;29.72;34.29;98947.28;6164405;28;96663;-62
2021/09/04 10:53:01;;;;;;;;;25.50;24.00;;;;;29.89;34.43;98969.34;6164157;28;97150;-63
2021/09/04 10:56:20;;;;;;;;;27.00;24.60;;;;;29.83;34.68;98967.09;6161246;28;97535;-62
2021/09/04 10:59:56;;;;;;;;;24.00;23.00;;;;;29.91;34.22;98967.00;6145932;28;96673;-63
2021/09/04 11:03:05;;;;;;;;;29.80;26.80;;;;;29.98;33.86;98958.91;6162859;28;96782;-63
2021/09/04 11:06:19;;;;;;;;;25.25;23.25;;;;;29.92;34.10;98967.81;6161060;28;96623;-62
2021/09/04 11:09:49;;;;;;;;;28.00;24.60;;;;;30.07;34.46;98973.50;6163793;28;96890;-62
2021/09/04 11:13:24;;;;;;;;;28.00;24.00;;;;;30.57;33.75;98977.88;6144639;28;96549;-62
2021/09/04 11:16:47;;;;;;;;;27.00;24.60;;;;;31.04;32.76;98980.03;6139325;28;96733;-63
2021/09/04 11:19:52;;;;;;;;;26.00;24.00;;;;;31.38;32.29;98968.25;6138899;28;97913;-62
2021/09/04 11:22:55;;;;;;;;;22.40;21.40;;;;;31.19;32.16;98965.34;6142826;28;96545;-63
2021/09/04 11:26:04;;;;;;;;;28.75;25.00;;;;;31.39;31.81;98955.97;6171801;28;97456;-62
2021/09/04 11:29:09;;;;;;;;;23.00;21.00;;;;;31.54;31.43;98955.16;6160087;28;96896;-62
2021/09/04 11:32:14;;;;;;;;;23.00;22.50;;;;;31.19;31.63;98959.78;6162589;28;97524;-62
2021/09/04 11:35:18;;;;;;;;;28.00;25.00;;;;;31.49;31.35;98954.63;6145521;28;97135;-62
2021/09/04 11:38:22;;;;;;;;;25.00;22.60;;;;;31.72;31.26;98958.44;6163397;28;96541;-62
2021/09/04 11:41:27;;;;;;;;;29.00;27.00;;;;;31.49;30.73;98963.78;6153412;28;97117;-61
2021/09/04 11:44:32;;;;;;;;;29.40;26.00;;;;;31.24;31.58;98940.03;6145814;28;97037;-62
2021/09/04 11:47:38;;;;;;;;;27.00;25.00;;;;;31.51;31.10;98961.47;6162994;28;96510;-63
2021/09/04 11:50:41;;;;;;;;;25.40;22.40;;;;;30.96;31.83;98959.53;6162957;28;97034;-61
2021/09/04 11:53:45;;;;;;;;;26.00;23.20;;;;;30.92;31.98;98958.63;6163668;28;98052;-61
2021/09/04 11:56:48;;;;;;;;;28.75;26.00;;;;;31.39;32.39;98967.91;6162893;28;97678;-62
2021/09/04 12:00:05;;;;;;;;;25.00;23.00;;;;;31.90;31.77;98951.34;6141687;28;97574;-62
2021/09/04 12:03:15;;;;;;;;;23.40;21.60;;;;;32.37;29.59;98956.84;6159794;28;97279;-62
2021/09/04 12:06:21;;;;;;;;;24.00;21.00;;;;;32.30;28.42;98967.06;6164107;28;97449;-62
2021/09/04 12:09:24;;;;;;;;;24.80;22.80;;;;;32.22;28.62;98964.09;6144541;28;98198;-62
2021/09/04 12:12:29;;;;;;;;;23.00;21.60;;;;;32.10;27.96;98957.78;6162994;28;97489;-62
2021/09/04 12:15:35;;;;;;;;;24.00;23.00;;;;;31.85;30.23;98953.59;6144922;28;96654;-62
2021/09/04 12:18:42;;;;;;;;;24.00;21.00;;;;;31.60;30.89;98956.56;6162595;28;96603;-63
2021/09/04 12:21:51;;;;;;;;;25.00;23.00;;;;;31.63;30.15;98952.22;6163570;28;97239;-61
2021/09/04 12:24:54;;;;;;;;;25.60;24.00;;;;;31.91;30.36;98952.97;6162321;28;96574;-62
2021/09/04 12:28:00;;;;;;;;;27.40;24.00;;;;;32.22;30.05;98957.69;6162701;28;97896;-62
2021/09/04 12:31:07;;;;;;;;;25.60;23.00;;;;;32.18;29.86;98965.97;6162979;28;97425;-62
2021/09/04 12:34:18;;;;;;;;;25.00;23.00;;;;;32.30;29.27;98961.47;6163258;28;96485;-62
2021/09/04 12:37:25;;;;;;;;;25.40;25.00;;;;;32.62;29.19;98960.19;6157962;28;97712;-63
2021/09/04 12:40:28;;;;;;;;;24.50;23.00;;;;;32.86;29.63;98961.91;6156209;28;96612;-62
2021/09/04 12:43:47;;;;;;;;;25.60;23.00;;;;;33.11;28.77;98960.44;6162307;28;97477;-63
2021/09/04 12:46:53;;;;;;;;;24.00;22.00;;;;;33.22;27.98;98961.50;6162298;28;96488;-63
2021/09/04 12:49:56;;;;;;;;;24.00;21.20;;;;;33.33;28.30;98962.47;6153839;28;96965;-63
2021/09/04 12:53:06;;;;;;;;;25.00;24.00;;;;;33.27;27.88;98963.97;6161279;28;96663;-63
2021/09/04 12:56:10;;;;;;;;;24.00;22.40;;;;;33.16;27.11;98962.16;6144666;28;97981;-63
2021/09/04 12:59:14;;;;;;;;;29.00;26.40;;;;;32.77;27.76;98961.31;6164804;28;96452;-61
2021/09/04 13:02:22;;;;;;;;;25.00;23.00;;;;;32.71;28.20;98958.03;6159387;28;97485;-63
2021/09/04 13:05:27;;;;;;;;;25.00;23.00;;;;;32.79;28.42;98959.00;6160267;28;97427;-63
2021/09/04 13:08:31;;;;;;;;;23.00;22.00;;;;;32.73;28.77;98958.47;6162194;28;97461;-63
2021/09/04 13:11:34;;;;;;;;;22.60;20.00;;;;;32.56;29.48;98959.66;6159808;28;96934;-63
2021/09/04 13:14:37;;;;;;;;;24.50;22.00;;;;;32.57;28.88;98969.66;6148709;28;96789;-63
2021/09/04 13:17:43;;;;;;;;;22.00;20.40;;;;;32.47;29.50;98963.84;6140997;28;97170;-63
2021/09/04 13:20:46;;;;;;;;;23.50;20.75;;;;;32.50;29.76;98952.75;6135900;28;97453;-63
2021/09/04 13:23:50;;;;;;;;;22.60;20.20;;;;;32.39;29.60;98960.09;6142643;28;98787;-63
2021/09/04 13:26:53;;;;;;;;;21.60;21.00;;;;;32.04;29.31;98946.09;6145372;28;97598;-61
2021/09/04 13:29:56;;;;;;;;;22.00;21.00;;;;;31.87;29.73;98951.22;6143845;28;97524;-63
2021/09/04 13:33:01;;;;;;;;;26.00;21.40;;;;;31.54;30.33;98952.38;6149045;28;96674;-62
2021/09/04 13:36:05;;;;;;;;;22.40;20.60;;;;;31.53;30.19;98955.53;6161733;28;96800;-62
2021/09/04 13:39:09;;;;;;;;;23.20;21.20;;;;;31.61;29.19;98949.81;6160908;28;96618;-63
2021/09/04 13:42:12;;;;;;;;;23.40;22.00;;;;;31.42;30.33;98943.31;6145287;28;97873;-62
2021/09/04 13:45:16;;;;;;;;;22.00;20.00;;;;;31.41;29.25;98942.50;6160887;28;97348;-62
2021/09/04 13:48:20;;;;;;;;;22.40;20.60;;;;;31.49;29.43;98940.69;6160321;28;96676;-63
2021/09/04 13:51:24;;;;;;;;;22.40;20.40;;;;;31.53;29.68;98938.78;6160649;28;96626;-63
2021/09/04 13:54:27;;;;;;;;;23.25;20.25;;;;;31.29;29.77;98935.00;6164743;28;97140;-63
2021/09/04 13:57:30;;;;;;;;;22.00;20.80;;;;;31.20;30.67;98937.16;6164658;28;96443;-62
2021/09/04 14:00:34;;;;;;;;;24.20;21.00;;;;;30.96;30.14;98934.47;6165313;28;96947;-63
2021/09/04 14:03:38;;;;;;;;;23.60;22.00;;;;;30.65;30.60;98929.59;6165214;28;97366;-61
2021/09/04 14:06:42;;;;;;;;;29.40;21.00;;;;;30.44;31.38;98928.97;6148162;28;98323;-61
2021/09/04 14:09:45;;;;;;;;;23.00;21.00;;;;;30.32;31.49;98938.13;6165049;28;96637;-61
2021/09/04 14:12:48;;;;;;;;;21.60;19.40;;;;;30.01;32.12;98929.59;6166386;28;96890;-62